createdAt,value
2023-03-08T00:00:55.925Z,2.60
2023-03-08T00:02:55.851Z,2.60
2023-03-08T00:04:55.920Z,2.50
2023-03-08T00:06:55.862Z,2.40
2023-03-08T00:08:55.890Z,2.40
2023-03-08T00:10:55.908Z,2.40
2023-03-08T00:12:55.848Z,2.30
2023-03-08T00:14:55.871Z,2.30
2023-03-08T00:16:55.947Z,2.30
2023-03-08T00:18:55.871Z,2.30
2023-03-08T00:20:55.854Z,2.20
2023-03-08T00:22:55.886Z,2.10
2023-03-08T00:24:55.885Z,2.10
2023-03-08T00:26:55.842Z,2.10
2023-03-08T00:28:55.890Z,2.10
2023-03-08T00:30:55.860Z,2.10
2023-03-08T00:32:55.936Z,2.10
2023-03-08T00:34:55.894Z,2.00
2023-03-08T00:36:55.883Z,2.00
2023-03-08T00:38:55.872Z,1.90
2023-03-08T00:40:56.114Z,1.90
2023-03-08T00:42:55.859Z,2.00
2023-03-08T00:44:55.956Z,2.20
2023-03-08T00:46:55.888Z,2.20
2023-03-08T00:48:55.989Z,2.30
2023-03-08T00:50:55.877Z,2.30
2023-03-08T00:52:55.869Z,2.30
2023-03-08T00:54:55.869Z,2.20
2023-03-08T00:56:55.877Z,2.20
2023-03-08T00:58:55.881Z,2.20
2023-03-08T01:00:55.988Z,2.30
2023-03-08T01:02:55.925Z,2.40
2023-03-08T01:04:55.885Z,2.40
2023-03-08T01:06:55.904Z,2.40
2023-03-08T01:08:55.965Z,2.40
2023-03-08T01:11:25.947Z,2.50
2023-03-08T01:13:25.867Z,2.50
2023-03-08T01:15:25.886Z,2.50
2023-03-08T01:17:26.007Z,2.50
2023-03-08T01:19:25.881Z,2.50
2023-03-08T01:21:25.901Z,2.60
2023-03-08T01:23:25.908Z,2.60
2023-03-08T01:25:25.912Z,2.50
2023-03-08T01:27:25.939Z,2.50
2023-03-08T01:29:25.954Z,2.50
2023-03-08T01:31:25.900Z,2.60
2023-03-08T01:33:25.911Z,2.60
2023-03-08T01:35:26.012Z,2.60
2023-03-08T01:37:25.891Z,2.60
2023-03-08T01:39:25.903Z,2.50
2023-03-08T01:41:25.950Z,2.50
2023-03-08T01:43:25.913Z,2.50
2023-03-08T01:45:25.886Z,2.40
2023-03-08T01:47:25.894Z,2.40
2023-03-08T01:49:26.014Z,2.40
2023-03-08T01:51:25.892Z,2.40
2023-03-08T01:53:25.925Z,2.40
2023-03-08T01:55:25.924Z,2.30
2023-03-08T01:57:26.000Z,2.30
2023-03-08T01:59:25.886Z,2.30
2023-03-08T02:01:25.960Z,2.30
2023-03-08T02:03:26.011Z,2.30
2023-03-08T02:05:26.020Z,2.30
2023-03-08T02:07:25.978Z,2.30
2023-03-08T02:09:25.942Z,2.40
2023-03-08T02:11:25.922Z,2.40
2023-03-08T02:13:25.924Z,2.40
2023-03-08T02:15:25.988Z,2.40
2023-03-08T02:17:25.916Z,2.40
2023-03-08T02:19:26.050Z,2.40
2023-03-08T02:21:26.047Z,2.30
2023-03-08T02:23:25.954Z,2.30
2023-03-08T02:25:25.938Z,2.30
2023-03-08T02:27:25.992Z,2.20
2023-03-08T02:29:26.021Z,2.20
2023-03-08T02:31:25.987Z,2.10
2023-03-08T02:33:26.141Z,2.10
2023-03-08T02:35:26.126Z,2.10
2023-03-08T02:37:25.936Z,2.10
2023-03-08T02:39:25.921Z,2.00
2023-03-08T02:41:25.914Z,1.90
2023-03-08T02:43:26.043Z,1.90
2023-03-08T02:45:25.969Z,1.70
2023-03-08T02:47:25.983Z,1.60
2023-03-08T02:49:26.129Z,1.50
2023-03-08T02:51:37.033Z,1.50
2023-03-08T02:53:36.899Z,1.50
2023-03-08T02:55:36.964Z,1.40
2023-03-08T02:57:36.887Z,1.40
2023-03-08T02:59:36.990Z,1.40
2023-03-08T03:01:36.954Z,1.40
2023-03-08T03:03:36.947Z,1.20
2023-03-08T03:05:36.915Z,1.20
2023-03-08T03:07:36.927Z,1.20
2023-03-08T03:09:36.976Z,1.20
2023-03-08T03:11:36.878Z,1.20
2023-03-08T03:13:36.962Z,1.20
2023-03-08T03:15:36.939Z,1.20
2023-03-08T03:17:37.017Z,1.20
2023-03-08T03:19:36.996Z,1.10
2023-03-08T03:21:36.942Z,1.10
2023-03-08T03:23:36.928Z,1.10
2023-03-08T03:25:36.930Z,1.10
2023-03-08T03:27:36.916Z,1.10
2023-03-08T03:29:36.873Z,1.10
2023-03-08T03:31:36.919Z,1.00
2023-03-08T03:33:37.012Z,1.00
2023-03-08T03:35:36.905Z,1.00
2023-03-08T03:38:06.893Z,1.00
2023-03-08T03:40:06.899Z,1.00
2023-03-08T03:42:06.895Z,0.90
2023-03-08T03:44:06.903Z,0.90
2023-03-08T03:46:06.947Z,0.90
2023-03-08T03:48:06.913Z,0.90
2023-03-08T03:50:06.917Z,0.90
2023-03-08T03:52:06.953Z,0.90
2023-03-08T03:54:07.487Z,0.80
2023-03-08T03:56:06.955Z,0.70
2023-03-08T03:58:06.905Z,0.70
2023-03-08T04:00:06.990Z,0.70
2023-03-08T04:02:06.934Z,0.70
2023-03-08T04:04:07.041Z,0.70
2023-03-08T04:06:06.922Z,0.70
2023-03-08T04:08:06.974Z,0.70
2023-03-08T04:10:06.932Z,0.70
2023-03-08T04:12:06.908Z,0.70
2023-03-08T04:14:06.929Z,0.70
2023-03-08T04:16:06.935Z,0.70
2023-03-08T04:18:06.951Z,0.70
2023-03-08T04:20:06.959Z,0.70
2023-03-08T04:22:06.957Z,0.70
2023-03-08T04:24:06.983Z,0.60
2023-03-08T04:26:06.927Z,0.60
2023-03-08T04:28:06.924Z,0.60
2023-03-08T04:30:07.010Z,0.60
2023-03-08T04:32:06.961Z,0.60
2023-03-08T04:34:06.965Z,0.50
2023-03-08T04:36:06.991Z,0.50
2023-03-08T04:38:06.942Z,0.50
2023-03-08T04:40:06.949Z,0.50
2023-03-08T04:42:06.910Z,0.50
2023-03-08T04:44:07.030Z,0.50
2023-03-08T04:46:06.937Z,0.50
2023-03-08T04:48:07.119Z,0.50
2023-03-08T04:50:07.156Z,1.10
2023-03-08T04:52:06.958Z,1.20
2023-03-08T04:54:07.025Z,1.20
2023-03-08T04:56:07.015Z,1.20
2023-03-08T04:58:07.038Z,1.20
2023-03-08T05:00:07.079Z,1.20
2023-03-08T05:02:07.149Z,1.20
2023-03-08T05:04:06.969Z,1.20
2023-03-08T05:06:06.946Z,1.10
2023-03-08T05:08:06.982Z,1.10
2023-03-08T05:10:06.997Z,1.10
2023-03-08T05:12:07.023Z,1.10
2023-03-08T05:14:07.029Z,1.10
2023-03-08T05:16:07.013Z,1.10
2023-03-08T05:18:06.932Z,1.20
2023-03-08T05:20:06.946Z,1.20
2023-03-08T05:22:07.080Z,1.20
2023-03-08T05:24:06.980Z,1.20
2023-03-08T05:26:06.977Z,1.20
2023-03-08T05:28:37.028Z,1.20
2023-03-08T05:30:36.965Z,1.20
2023-03-08T05:32:36.967Z,1.30
2023-03-08T05:34:37.068Z,1.30
2023-03-08T05:36:37.028Z,1.30
2023-03-08T05:38:37.026Z,1.40
2023-03-08T05:40:37.027Z,1.40
2023-03-08T05:42:37.044Z,1.40
2023-03-08T05:44:37.057Z,1.30
2023-03-08T05:46:37.053Z,1.30
2023-03-08T05:48:37.090Z,1.30
2023-03-08T05:50:36.992Z,1.30
2023-03-08T05:52:36.961Z,1.30
2023-03-08T05:54:37.021Z,1.30
2023-03-08T05:56:38.076Z,1.30
2023-03-08T05:58:37.051Z,1.40
2023-03-08T06:00:37.059Z,1.40
2023-03-08T06:02:37.010Z,1.30
2023-03-08T06:04:37.089Z,1.30
2023-03-08T06:06:36.974Z,1.40
2023-03-08T06:08:37.014Z,1.40
2023-03-08T06:10:37.048Z,1.50
2023-03-08T06:12:36.989Z,1.50
2023-03-08T06:14:37.041Z,1.50
2023-03-08T06:16:37.120Z,1.50
2023-03-08T06:18:37.116Z,1.60
2023-03-08T06:20:36.976Z,1.60
2023-03-08T06:22:36.992Z,1.70
2023-03-08T06:24:38.078Z,1.70
2023-03-08T06:26:37.071Z,1.80
2023-03-08T06:28:37.043Z,1.70
2023-03-08T06:30:37.130Z,1.60
2023-03-08T06:32:37.027Z,1.60
2023-03-08T06:34:36.984Z,1.60
2023-03-08T06:36:37.014Z,1.50
2023-03-08T06:38:36.972Z,1.40
2023-03-08T06:40:37.078Z,1.30
2023-03-08T06:42:41.459Z,1.30
2023-03-08T06:44:38.042Z,1.20
2023-03-08T06:46:36.991Z,1.20
2023-03-08T06:48:37.001Z,1.20
2023-03-08T06:50:36.997Z,1.20
2023-03-08T06:52:37.049Z,1.20
2023-03-08T06:54:36.980Z,1.20
2023-03-08T06:56:37.088Z,1.20
2023-03-08T06:58:37.076Z,1.20
2023-03-08T07:00:36.988Z,1.20
2023-03-08T07:02:37.118Z,1.20
2023-03-08T07:04:37.100Z,1.20
2023-03-08T07:06:37.006Z,1.20
2023-03-08T07:08:37.255Z,1.30
2023-03-08T07:10:36.995Z,1.30
2023-03-08T07:12:36.987Z,1.30
2023-03-08T07:14:36.992Z,1.30
2023-03-08T07:16:37.108Z,1.40
2023-03-08T07:18:37.027Z,1.40
2023-03-08T07:20:37.035Z,1.40
2023-03-08T07:23:06.997Z,1.40
2023-03-08T07:25:07.012Z,1.40
2023-03-08T07:27:07.017Z,1.50
2023-03-08T07:29:07.012Z,1.50
2023-03-08T07:31:07.111Z,1.50
2023-03-08T07:33:07.025Z,1.40
2023-03-08T07:35:07.017Z,1.30
2023-03-08T07:37:07.028Z,1.30
2023-03-08T07:39:07.115Z,1.30
2023-03-08T07:41:07.036Z,1.30
2023-03-08T07:43:07.037Z,1.30
2023-03-08T07:45:07.054Z,1.30
2023-03-08T07:47:07.028Z,1.40
2023-03-08T07:49:07.130Z,1.40
2023-03-08T07:51:07.020Z,1.50
2023-03-08T07:53:07.012Z,1.50
2023-03-08T07:55:07.090Z,1.50
2023-03-08T07:57:07.004Z,1.50
2023-03-08T07:59:07.128Z,1.50
2023-03-08T08:01:07.047Z,1.50
2023-03-08T08:03:07.096Z,1.50
2023-03-08T08:05:07.045Z,1.50
2023-03-08T08:07:07.050Z,1.50
2023-03-08T08:09:07.438Z,1.50
2023-03-08T08:11:07.047Z,1.50
2023-03-08T08:13:07.026Z,1.60
2023-03-08T08:15:07.062Z,1.60
2023-03-08T08:17:08.065Z,1.60
2023-03-08T08:19:07.078Z,1.60
2023-03-08T08:21:07.072Z,1.70
2023-03-08T08:23:07.053Z,1.70
2023-03-08T08:25:07.035Z,1.70
2023-03-08T08:27:07.041Z,1.70
2023-03-08T08:29:07.145Z,1.70
2023-03-08T08:31:07.074Z,1.70
2023-03-08T08:33:07.063Z,1.60
2023-03-08T08:35:07.049Z,1.60
2023-03-08T08:37:07.034Z,1.60
2023-03-08T08:39:07.083Z,1.50
2023-03-08T08:41:07.042Z,1.50
2023-03-08T08:43:07.025Z,1.40
2023-03-08T08:45:07.076Z,1.40
2023-03-08T08:47:07.079Z,1.30
2023-03-08T08:49:07.268Z,1.40
2023-03-08T08:51:07.084Z,1.50
2023-03-08T08:53:07.113Z,1.60
2023-03-08T08:55:07.142Z,1.60
2023-03-08T08:57:07.061Z,1.60
2023-03-08T08:59:07.032Z,1.60
2023-03-08T09:01:09.195Z,1.60
2023-03-08T09:03:07.093Z,1.60
2023-03-08T09:05:07.148Z,1.70
2023-03-08T09:07:07.062Z,1.70
2023-03-08T09:09:07.059Z,1.70
2023-03-08T09:11:07.107Z,1.80
2023-03-08T09:13:37.148Z,1.80
2023-03-08T09:15:37.083Z,1.80
2023-03-08T09:17:37.054Z,1.80
2023-03-08T09:19:37.096Z,1.90
2023-03-08T09:21:37.170Z,2.00
2023-03-08T09:23:37.078Z,2.20
2023-03-08T09:25:37.091Z,2.20
2023-03-08T09:27:37.151Z,2.20
2023-03-08T09:29:37.246Z,2.30
2023-03-08T09:31:37.145Z,2.30
2023-03-08T09:33:37.161Z,2.30
2023-03-08T09:35:37.235Z,2.30
2023-03-08T09:37:37.091Z,2.30
2023-03-08T09:39:37.145Z,2.50
2023-03-08T09:41:37.063Z,2.60
2023-03-08T09:43:37.202Z,2.60
2023-03-08T09:45:37.182Z,2.60
2023-03-08T09:47:37.095Z,2.70
2023-03-08T09:49:37.170Z,2.90
2023-03-08T09:51:37.137Z,2.90
2023-03-08T09:53:46.279Z,3.00
2023-03-08T09:55:37.123Z,3.00
2023-03-08T09:57:37.302Z,3.00
2023-03-08T10:01:30.160Z,3.20
2023-03-08T10:03:30.180Z,3.20
2023-03-08T10:05:30.157Z,3.20
2023-03-08T10:07:30.293Z,3.20
2023-03-08T10:09:30.180Z,3.30
2023-03-08T10:11:30.158Z,3.40
2023-03-08T10:13:30.207Z,3.40
2023-03-08T10:15:30.245Z,3.50
2023-03-08T10:17:30.216Z,3.50
2023-03-08T10:19:30.198Z,3.50
2023-03-08T10:21:30.189Z,3.60
2023-03-08T10:23:30.186Z,3.60
2023-03-08T10:25:30.220Z,3.70
2023-03-08T10:27:30.170Z,3.70
2023-03-08T10:29:30.209Z,3.70
2023-03-08T10:31:30.277Z,3.70
2023-03-08T10:33:30.185Z,3.70
2023-03-08T10:35:30.239Z,3.80
2023-03-08T10:37:30.206Z,3.80
2023-03-08T10:40:00.228Z,3.90
2023-03-08T10:42:00.183Z,3.90
2023-03-08T10:44:00.171Z,3.90
2023-03-08T10:46:00.302Z,3.90
2023-03-08T10:48:00.177Z,4.00
2023-03-08T10:50:00.196Z,4.10
2023-03-08T10:52:00.198Z,4.10
2023-03-08T10:54:00.242Z,4.10
2023-03-08T10:56:00.261Z,4.30
2023-03-08T10:58:00.168Z,4.30
2023-03-08T11:00:00.214Z,4.40
2023-03-08T11:02:00.290Z,4.40
2023-03-08T11:04:00.327Z,4.30
2023-03-08T11:06:00.234Z,4.40
2023-03-08T11:08:00.200Z,4.50
2023-03-08T11:10:00.385Z,4.50
2023-03-08T11:12:00.218Z,4.60
2023-03-08T11:14:00.211Z,4.70
2023-03-08T11:16:00.256Z,4.70
2023-03-08T11:18:00.302Z,4.70
2023-03-08T11:20:00.328Z,4.70
2023-03-08T11:22:00.210Z,4.80
2023-03-08T11:24:00.384Z,4.90
2023-03-08T11:26:00.215Z,4.90
2023-03-08T11:28:00.256Z,5.30
2023-03-08T11:30:00.264Z,5.30
2023-03-08T11:32:00.206Z,5.50
2023-03-08T11:34:00.360Z,5.70
2023-03-08T11:36:00.274Z,5.90
2023-03-08T11:38:00.232Z,5.90
2023-03-08T11:40:00.255Z,6.20
2023-03-08T11:42:00.242Z,6.40
2023-03-08T11:44:00.230Z,6.50
2023-03-08T11:46:00.272Z,7.20
2023-03-08T11:48:00.209Z,7.20
2023-03-08T11:50:00.209Z,7.80
2023-03-08T11:52:00.235Z,8.10
2023-03-08T11:54:00.259Z,8.20
2023-03-08T11:56:01.261Z,8.40
2023-03-08T11:58:00.231Z,8.40
2023-03-08T12:00:00.241Z,8.40
2023-03-08T12:02:00.237Z,8.60
2023-03-08T12:04:02.479Z,8.60
2023-03-08T12:06:00.341Z,8.60
2023-03-08T12:08:00.305Z,8.40
2023-03-08T12:10:00.359Z,8.30
2023-03-08T12:12:02.346Z,8.40
2023-03-08T12:14:00.242Z,8.60
2023-03-08T12:16:00.285Z,8.60
2023-03-08T12:18:00.360Z,8.60
2023-03-08T12:20:00.213Z,8.80
2023-03-08T12:22:00.225Z,9.00
2023-03-08T12:24:02.745Z,9.00
2023-03-08T12:26:00.271Z,9.00
2023-03-08T12:28:00.349Z,9.00
2023-03-08T12:30:30.264Z,9.10
2023-03-08T12:32:30.415Z,9.20
2023-03-08T12:34:30.346Z,9.20
2023-03-08T12:36:32.244Z,9.30
2023-03-08T12:38:30.296Z,9.30
2023-03-08T12:40:30.390Z,9.30
2023-03-08T12:42:30.276Z,9.40
2023-03-08T12:44:30.272Z,9.30
2023-03-08T12:46:30.277Z,9.40
2023-03-08T12:48:30.324Z,9.40
2023-03-08T12:50:30.276Z,9.40
2023-03-08T12:52:30.356Z,9.50
2023-03-08T12:54:30.348Z,9.50
2023-03-08T12:56:30.283Z,9.50
2023-03-08T12:58:30.272Z,9.50
2023-03-08T13:00:30.287Z,9.60
2023-03-08T13:02:30.263Z,9.60
2023-03-08T13:04:40.955Z,9.60
2023-03-08T13:06:30.303Z,9.60
2023-03-08T13:08:30.259Z,9.70
2023-03-08T13:10:30.286Z,9.70
2023-03-08T13:12:30.273Z,9.70
2023-03-08T13:14:30.340Z,9.70
2023-03-08T13:16:30.361Z,9.70
2023-03-08T13:18:30.302Z,9.70
2023-03-08T13:20:30.373Z,9.70
2023-03-08T13:22:30.291Z,9.90
2023-03-08T13:24:30.403Z,9.90
2023-03-08T13:26:37.699Z,9.90
2023-03-08T13:28:41.151Z,9.90
2023-03-08T13:30:30.386Z,9.80
2023-03-08T13:32:30.309Z,9.80
2023-03-08T13:34:30.293Z,10.00
2023-03-08T13:36:30.289Z,10.00
2023-03-08T13:38:30.388Z,10.00
2023-03-08T13:40:30.341Z,10.00
2023-03-08T13:42:30.308Z,10.00
2023-03-08T13:44:30.392Z,10.00
2023-03-08T13:46:30.404Z,10.00
2023-03-08T13:48:30.300Z,10.00
2023-03-08T13:50:30.291Z,10.20
2023-03-08T13:52:30.334Z,10.20
2023-03-08T13:54:30.469Z,10.20
2023-03-08T13:56:30.361Z,10.20
2023-03-08T13:58:30.366Z,10.30
2023-03-08T14:00:30.397Z,10.30
2023-03-08T14:02:30.426Z,10.30
2023-03-08T14:04:30.452Z,10.30
2023-03-08T14:06:30.401Z,10.40
2023-03-08T14:08:30.323Z,10.50
2023-03-08T14:10:30.449Z,10.50
2023-03-08T14:12:30.391Z,10.50
2023-03-08T14:14:30.344Z,10.60
2023-03-08T14:16:30.408Z,10.60
2023-03-08T14:18:30.458Z,10.60
2023-03-08T14:23:00.356Z,10.60
2023-03-08T14:25:00.347Z,10.60
2023-03-08T14:27:00.521Z,10.60
2023-03-08T14:29:00.320Z,10.60
2023-03-08T14:31:00.483Z,10.50
2023-03-08T14:33:00.487Z,10.50
2023-03-08T14:35:00.340Z,10.60
2023-03-08T14:37:00.336Z,10.60
2023-03-08T14:39:00.361Z,10.60
2023-03-08T14:41:00.384Z,10.60
2023-03-08T14:43:00.370Z,10.60
2023-03-08T14:45:00.462Z,10.60
2023-03-08T14:47:00.349Z,10.70
2023-03-08T14:49:00.476Z,10.80
2023-03-08T14:51:00.340Z,10.80
2023-03-08T14:53:00.345Z,10.80
2023-03-08T14:55:00.343Z,10.80
2023-03-08T14:57:00.457Z,10.70
2023-03-08T14:59:00.397Z,10.70
2023-03-08T15:01:00.348Z,10.70
2023-03-08T15:03:00.413Z,10.70
2023-03-08T15:05:00.363Z,10.60
2023-03-08T15:07:00.347Z,10.30
2023-03-08T15:09:00.434Z,10.30
2023-03-08T15:11:00.510Z,10.20
2023-03-08T15:13:00.346Z,10.00
2023-03-08T15:15:00.396Z,10.00
2023-03-08T15:17:00.425Z,10.00
2023-03-08T15:19:00.397Z,10.00
2023-03-08T15:21:00.490Z,10.00
2023-03-08T15:23:00.464Z,10.00
2023-03-08T15:25:00.479Z,9.90
2023-03-08T15:27:00.378Z,9.80
2023-03-08T15:29:00.373Z,9.80
2023-03-08T15:31:00.530Z,9.80
2023-03-08T15:33:00.415Z,9.80
2023-03-08T15:35:00.350Z,10.00
2023-03-08T15:37:00.464Z,10.10
2023-03-08T15:39:00.369Z,10.10
2023-03-08T15:41:00.381Z,10.30
2023-03-08T15:43:00.369Z,10.40
2023-03-08T15:45:00.356Z,10.40
2023-03-08T15:47:00.413Z,10.40
2023-03-08T15:49:00.474Z,10.40
2023-03-08T15:51:00.413Z,10.40
2023-03-08T15:53:00.507Z,10.30
2023-03-08T15:55:01.868Z,10.40
2023-03-08T15:57:00.590Z,10.40
2023-03-08T15:59:00.413Z,10.40
2023-03-08T16:01:00.547Z,10.60
2023-03-08T16:03:01.533Z,10.60
2023-03-08T16:05:00.515Z,10.50
2023-03-08T16:07:00.480Z,10.50
2023-03-08T16:09:00.492Z,10.50
2023-03-08T16:11:00.483Z,10.60
2023-03-08T16:13:30.578Z,10.50
2023-03-08T16:15:30.445Z,10.50
2023-03-08T16:17:30.443Z,10.60
2023-03-08T16:19:30.470Z,10.60
2023-03-08T16:21:31.412Z,10.60
2023-03-08T16:23:30.677Z,10.70
2023-03-08T16:25:30.490Z,10.60
2023-03-08T16:27:30.441Z,10.60
2023-03-08T16:29:30.400Z,10.60
2023-03-08T16:31:30.527Z,10.70
2023-03-08T16:33:30.479Z,10.80
2023-03-08T16:35:30.468Z,10.80
2023-03-08T16:37:30.587Z,10.80
2023-03-08T16:39:30.511Z,10.80
2023-03-08T16:41:30.511Z,10.80
2023-03-08T16:43:40.622Z,10.80
2023-03-08T16:45:30.621Z,10.80
2023-03-08T16:47:30.429Z,10.80
2023-03-08T16:49:30.550Z,10.80
2023-03-08T16:51:30.486Z,10.90
2023-03-08T16:53:30.508Z,10.90
2023-03-08T16:55:30.525Z,10.90
2023-03-08T16:57:30.598Z,10.90
2023-03-08T16:59:32.335Z,10.80
2023-03-08T17:01:31.478Z,10.80
2023-03-08T17:03:30.506Z,10.80
2023-03-08T17:05:31.528Z,10.60
2023-03-08T17:09:30.602Z,10.40
2023-03-08T17:11:30.642Z,10.40
2023-03-08T17:15:41.137Z,10.20
2023-03-08T17:17:41.115Z,10.20
2023-03-08T17:19:41.264Z,10.00
2023-03-08T17:21:41.158Z,10.00
2023-03-08T17:23:41.032Z,10.00
2023-03-08T17:25:41.305Z,10.00
2023-03-08T17:27:41.100Z,9.70
2023-03-08T17:29:42.176Z,9.50
2023-03-08T17:31:41.174Z,9.30
2023-03-08T17:33:41.134Z,9.10
2023-03-08T17:35:41.341Z,9.10
2023-03-08T17:37:42.132Z,9.10
2023-03-08T17:39:41.087Z,9.10
2023-03-08T17:41:41.137Z,9.10
2023-03-08T17:43:41.372Z,9.10
2023-03-08T17:45:43.496Z,9.10
2023-03-08T17:47:41.115Z,9.10
2023-03-08T17:49:41.190Z,9.20
2023-03-08T17:51:41.174Z,9.10
2023-03-08T17:53:41.179Z,9.10
2023-03-08T17:55:41.180Z,9.10
2023-03-08T17:57:41.543Z,9.40
2023-03-08T17:59:41.104Z,9.40
2023-03-08T18:01:42.189Z,9.40
2023-03-08T18:03:41.155Z,9.40
2023-03-08T18:05:41.205Z,9.40
2023-03-08T18:07:41.863Z,9.50
2023-03-08T18:09:41.190Z,9.50
2023-03-08T18:11:41.122Z,9.50
2023-03-08T18:13:41.201Z,9.60
2023-03-08T18:15:41.182Z,9.60
2023-03-08T18:17:41.232Z,9.60
2023-03-08T18:19:41.184Z,9.50
2023-03-08T18:21:41.685Z,9.50
2023-03-08T18:23:41.198Z,9.50
2023-03-08T18:25:41.119Z,9.50
2023-03-08T18:27:42.139Z,9.50
2023-03-08T18:29:41.173Z,9.60
2023-03-08T18:31:41.193Z,9.60
2023-03-08T18:33:41.151Z,9.60
2023-03-08T18:35:41.215Z,9.60
2023-03-08T18:37:41.244Z,9.70
2023-03-08T18:39:41.228Z,9.70
2023-03-08T18:41:41.140Z,9.70
2023-03-08T18:44:11.141Z,10.00
2023-03-08T18:46:11.141Z,10.00
2023-03-08T18:48:11.154Z,10.00
2023-03-08T18:50:11.213Z,10.00
2023-03-08T18:52:11.102Z,10.00
2023-03-08T18:54:11.187Z,10.00
2023-03-08T18:56:11.113Z,9.90
2023-03-08T18:58:11.138Z,9.80
2023-03-08T19:00:11.145Z,9.80
2023-03-08T19:02:11.235Z,9.70
2023-03-08T19:04:11.245Z,9.70
2023-03-08T19:06:11.213Z,9.60
2023-03-08T19:08:11.170Z,9.70
2023-03-08T19:10:11.223Z,9.70
2023-03-08T19:12:11.151Z,9.70
2023-03-08T19:14:11.119Z,9.70
2023-03-08T19:16:11.230Z,10.00
2023-03-08T19:18:11.217Z,10.00
2023-03-08T19:20:11.206Z,9.90
2023-03-08T19:22:11.204Z,9.90
2023-03-08T19:24:11.136Z,10.00
2023-03-08T19:26:11.278Z,10.00
2023-03-08T19:28:11.152Z,10.00
2023-03-08T19:30:11.169Z,10.20
2023-03-08T19:32:11.199Z,10.10
2023-03-08T19:34:11.227Z,10.00
2023-03-08T19:36:11.225Z,9.90
2023-03-08T19:38:11.248Z,9.90
2023-03-08T19:40:11.227Z,10.00
2023-03-08T19:42:11.219Z,10.10
2023-03-08T19:44:11.202Z,10.30
2023-03-08T19:46:11.305Z,10.30
2023-03-08T19:48:11.212Z,10.30
2023-03-08T19:50:11.148Z,10.10
2023-03-08T19:52:11.212Z,10.20
2023-03-08T19:54:11.144Z,10.20
2023-03-08T19:56:11.251Z,10.20
2023-03-08T19:58:11.167Z,10.20
2023-03-08T20:00:11.187Z,10.20
2023-03-08T20:02:11.282Z,10.10
2023-03-08T20:04:11.236Z,10.10
2023-03-08T20:06:11.231Z,10.10
2023-03-08T20:08:11.263Z,10.10
2023-03-08T20:10:16.333Z,10.10
2023-03-08T20:12:11.491Z,10.30
2023-03-08T20:14:11.170Z,10.30
2023-03-08T20:16:11.228Z,10.30
2023-03-08T20:18:11.244Z,10.30
2023-03-08T20:20:11.338Z,10.30
2023-03-08T20:22:11.243Z,10.30
2023-03-08T20:24:11.251Z,10.30
2023-03-08T20:26:11.225Z,10.10
2023-03-08T20:28:11.212Z,10.10
2023-03-08T20:30:11.222Z,10.10
2023-03-08T20:32:11.292Z,10.10
2023-03-08T20:34:11.238Z,10.10
2023-03-08T20:36:41.449Z,9.90
2023-03-08T20:38:41.269Z,9.90
2023-03-08T20:40:41.461Z,9.90
2023-03-08T20:42:41.291Z,9.50
2023-03-08T20:44:41.221Z,9.50
2023-03-08T20:46:41.290Z,9.50
2023-03-08T20:48:41.234Z,9.50
2023-03-08T20:50:41.296Z,9.80
2023-03-08T20:52:41.268Z,9.70
2023-03-08T20:54:41.320Z,9.60
2023-03-08T20:56:41.216Z,9.60
2023-03-08T20:58:41.191Z,9.60
2023-03-08T21:00:41.537Z,9.60
2023-03-08T21:02:41.284Z,9.60
2023-03-08T21:04:41.373Z,9.60
2023-03-08T21:06:41.422Z,9.60
2023-03-08T21:08:41.320Z,9.50
2023-03-08T21:10:41.302Z,9.50
2023-03-08T21:12:41.693Z,9.50
2023-03-08T21:14:41.196Z,9.50
2023-03-08T21:16:41.268Z,9.50
2023-03-08T21:18:41.253Z,9.70
2023-03-08T21:20:41.268Z,9.70
2023-03-08T21:22:41.276Z,9.70
2023-03-08T21:24:41.304Z,9.70
2023-03-08T21:26:41.323Z,9.70
2023-03-08T21:28:41.217Z,9.70
2023-03-08T21:30:41.248Z,9.70
2023-03-08T21:32:41.289Z,9.50
2023-03-08T21:34:41.252Z,9.50
2023-03-08T21:36:41.276Z,9.50
2023-03-08T21:38:41.362Z,9.10
2023-03-08T21:40:41.332Z,8.90
2023-03-08T21:42:41.215Z,8.90
2023-03-08T21:44:41.247Z,8.90
2023-03-08T21:46:41.366Z,8.70
2023-03-08T21:48:41.302Z,8.70
2023-03-08T21:50:41.272Z,8.70
2023-03-08T21:52:41.354Z,8.70
2023-03-08T21:54:41.203Z,8.50
2023-03-08T21:56:41.335Z,8.50
2023-03-08T21:58:41.290Z,8.50
2023-03-08T22:00:41.254Z,8.60
2023-03-08T22:02:41.261Z,8.60
2023-03-08T22:04:41.348Z,8.60
2023-03-08T22:06:41.304Z,8.60
2023-03-08T22:08:41.351Z,8.60
2023-03-08T22:10:41.328Z,8.50
2023-03-08T22:12:41.341Z,8.50
2023-03-08T22:14:41.315Z,8.50
2023-03-08T22:16:41.313Z,8.50
2023-03-08T22:18:41.261Z,8.60
2023-03-08T22:20:41.376Z,8.60
2023-03-08T22:22:41.297Z,8.50
2023-03-08T22:24:41.375Z,8.50
2023-03-08T22:26:41.341Z,8.50
2023-03-08T22:29:11.247Z,8.50
2023-03-08T22:31:11.318Z,8.50
2023-03-08T22:33:11.435Z,8.50
2023-03-08T22:35:11.279Z,8.60
2023-03-08T22:37:11.291Z,8.60
2023-03-08T22:39:11.322Z,8.60
2023-03-08T22:41:11.345Z,8.60
2023-03-08T22:43:11.343Z,8.60
2023-03-08T22:45:11.305Z,8.60
2023-03-08T22:47:11.368Z,8.50
2023-03-08T22:49:11.403Z,8.50
2023-03-08T22:51:11.847Z,8.50
2023-03-08T22:53:11.338Z,8.40
2023-03-08T22:55:11.430Z,8.40
2023-03-08T22:57:11.369Z,8.50
2023-03-08T22:59:11.245Z,8.50
2023-03-08T23:01:11.315Z,8.40
2023-03-08T23:03:11.253Z,8.40
2023-03-08T23:05:11.330Z,8.40
2023-03-08T23:07:11.265Z,8.30
2023-03-08T23:09:11.242Z,8.30
2023-03-08T23:11:11.389Z,8.10
2023-03-08T23:13:14.417Z,8.10
2023-03-08T23:15:11.250Z,8.10
2023-03-08T23:17:11.271Z,8.10
2023-03-08T23:19:11.266Z,8.00
2023-03-08T23:21:11.268Z,8.00
2023-03-08T23:23:11.262Z,8.00
2023-03-08T23:25:11.355Z,8.00
2023-03-08T23:27:11.286Z,8.00
2023-03-08T23:29:11.246Z,8.00
2023-03-08T23:31:11.318Z,8.00
2023-03-08T23:33:11.321Z,8.00
2023-03-08T23:35:11.312Z,8.10
2023-03-08T23:37:11.341Z,8.10
2023-03-08T23:39:11.379Z,8.00
2023-03-08T23:41:11.545Z,8.00
2023-03-08T23:43:11.392Z,8.00
2023-03-08T23:45:11.318Z,8.00
2023-03-08T23:47:11.396Z,8.00
2023-03-08T23:49:11.432Z,8.00
2023-03-08T23:51:11.346Z,8.00
2023-03-08T23:53:11.365Z,8.00
2023-03-08T23:55:11.373Z,8.00
2023-03-08T23:57:11.386Z,8.00
2023-03-08T23:59:11.413Z,8.00
